sensor_id;sensor_type;location;lat;lon;timestamp;P1;durP1;ratioP1;P2;durP2;ratioP2
59649;SDS011;46162;57.568;25.814;2023-12-20T00:00:15;17.85;;;0.60;;
59649;SDS011;46162;57.568;25.814;2023-12-20T00:02:44;12.18;;;1.33;;
59649;SDS011;46162;57.568;25.814;2023-12-20T00:05:13;15.38;;;0.75;;
59649;SDS011;46162;57.568;25.814;2023-12-20T00:07:42;12.07;;;0.30;;
59649;SDS011;46162;57.568;25.814;2023-12-20T00:10:11;11.82;;;0.28;;
59649;SDS011;46162;57.568;25.814;2023-12-20T00:12:40;16.60;;;0.60;;
59649;SDS011;46162;57.568;25.814;2023-12-20T00:15:10;17.02;;;0.60;;
59649;SDS011;46162;57.568;25.814;2023-12-20T00:17:39;11.80;;;0.57;;
59649;SDS011;46162;57.568;25.814;2023-12-20T00:20:09;14.27;;;0.63;;
59649;SDS011;46162;57.568;25.814;2023-12-20T00:22:38;15.82;;;0.30;;
59649;SDS011;46162;57.568;25.814;2023-12-20T00:25:07;15.82;;;0.70;;
59649;SDS011;46162;57.568;25.814;2023-12-20T00:27:36;18.27;;;0.90;;
59649;SDS011;46162;57.568;25.814;2023-12-20T00:30:05;13.82;;;0.80;;
59649;SDS011;46162;57.568;25.814;2023-12-20T00:32:36;11.43;;;0.38;;
59649;SDS011;46162;57.568;25.814;2023-12-20T00:35:05;7.28;;;0.40;;
59649;SDS011;46162;57.568;25.814;2023-12-20T00:37:33;12.77;;;0.43;;
59649;SDS011;46162;57.568;25.814;2023-12-20T00:40:02;11.13;;;0.35;;
59649;SDS011;46162;57.568;25.814;2023-12-20T00:42:32;12.00;;;0.50;;
59649;SDS011;46162;57.568;25.814;2023-12-20T00:45:01;21.42;;;0.73;;
59649;SDS011;46162;57.568;25.814;2023-12-20T00:47:31;16.65;;;1.15;;
59649;SDS011;46162;57.568;25.814;2023-12-20T00:50:01;14.13;;;0.57;;
59649;SDS011;46162;57.568;25.814;2023-12-20T00:52:30;14.88;;;0.38;;
59649;SDS011;46162;57.568;25.814;2023-12-20T00:54:59;15.43;;;0.45;;
59649;SDS011;46162;57.568;25.814;2023-12-20T00:57:28;12.50;;;1.10;;
59649;SDS011;46162;57.568;25.814;2023-12-20T00:59:58;13.90;;;0.98;;
59649;SDS011;46162;57.568;25.814;2023-12-20T01:02:26;12.05;;;0.30;;
59649;SDS011;46162;57.568;25.814;2023-12-20T01:04:56;19.10;;;0.75;;
59649;SDS011;46162;57.568;25.814;2023-12-20T01:07:26;13.68;;;0.65;;
59649;SDS011;46162;57.568;25.814;2023-12-20T01:09:55;18.90;;;1.75;;
59649;SDS011;46162;57.568;25.814;2023-12-20T01:12:24;17.20;;;1.00;;
59649;SDS011;46162;57.568;25.814;2023-12-20T01:14:52;11.65;;;0.50;;
59649;SDS011;46162;57.568;25.814;2023-12-20T01:17:21;17.55;;;0.75;;
59649;SDS011;46162;57.568;25.814;2023-12-20T01:19:51;12.88;;;0.50;;
59649;SDS011;46162;57.568;25.814;2023-12-20T01:22:19;10.43;;;0.68;;
59649;SDS011;46162;57.568;25.814;2023-12-20T01:24:50;16.92;;;0.55;;
59649;SDS011;46162;57.568;25.814;2023-12-20T01:27:18;14.40;;;0.45;;
59649;SDS011;46162;57.568;25.814;2023-12-20T01:29:47;10.43;;;0.30;;
59649;SDS011;46162;57.568;25.814;2023-12-20T01:32:15;15.70;;;0.77;;
59649;SDS011;46162;57.568;25.814;2023-12-20T01:34:44;18.90;;;0.63;;
59649;SDS011;46162;57.568;25.814;2023-12-20T01:37:13;10.38;;;0.60;;
59649;SDS011;46162;57.568;25.814;2023-12-20T01:39:42;12.15;;;0.40;;
59649;SDS011;46162;57.568;25.814;2023-12-20T01:42:12;9.55;;;0.35;;
59649;SDS011;46162;57.568;25.814;2023-12-20T01:44:40;15.77;;;0.50;;
59649;SDS011;46162;57.568;25.814;2023-12-20T01:47:09;14.23;;;0.47;;
59649;SDS011;46162;57.568;25.814;2023-12-20T01:49:38;14.48;;;0.73;;
59649;SDS011;46162;57.568;25.814;2023-12-20T01:52:07;10.60;;;0.20;;
59649;SDS011;46162;57.568;25.814;2023-12-20T01:54:38;13.65;;;0.63;;
59649;SDS011;46162;57.568;25.814;2023-12-20T01:57:09;17.73;;;0.98;;
59649;SDS011;46162;57.568;25.814;2023-12-20T01:59:39;17.60;;;0.83;;
59649;SDS011;46162;57.568;25.814;2023-12-20T02:02:08;13.98;;;0.60;;
59649;SDS011;46162;57.568;25.814;2023-12-20T02:04:39;10.48;;;0.30;;
59649;SDS011;46162;57.568;25.814;2023-12-20T02:07:08;17.23;;;1.58;;
59649;SDS011;46162;57.568;25.814;2023-12-20T02:09:40;15.90;;;0.25;;
59649;SDS011;46162;57.568;25.814;2023-12-20T02:12:08;13.18;;;0.32;;
59649;SDS011;46162;57.568;25.814;2023-12-20T02:14:39;15.35;;;0.43;;
59649;SDS011;46162;57.568;25.814;2023-12-20T02:17:07;17.57;;;0.60;;
59649;SDS011;46162;57.568;25.814;2023-12-20T02:19:36;14.80;;;0.75;;
59649;SDS011;46162;57.568;25.814;2023-12-20T02:22:07;17.27;;;0.55;;
59649;SDS011;46162;57.568;25.814;2023-12-20T02:24:37;17.48;;;0.65;;
59649;SDS011;46162;57.568;25.814;2023-12-20T02:27:06;15.23;;;0.98;;
59649;SDS011;46162;57.568;25.814;2023-12-20T02:29:35;17.75;;;0.60;;
59649;SDS011;46162;57.568;25.814;2023-12-20T02:32:04;13.77;;;0.65;;
59649;SDS011;46162;57.568;25.814;2023-12-20T02:34:33;15.05;;;0.38;;
59649;SDS011;46162;57.568;25.814;2023-12-20T02:37:02;19.48;;;1.00;;
59649;SDS011;46162;57.568;25.814;2023-12-20T02:39:32;16.73;;;0.90;;
59649;SDS011;46162;57.568;25.814;2023-12-20T02:42:01;14.05;;;0.40;;
59649;SDS011;46162;57.568;25.814;2023-12-20T02:44:30;14.00;;;0.65;;
59649;SDS011;46162;57.568;25.814;2023-12-20T02:46:59;15.23;;;0.50;;
59649;SDS011;46162;57.568;25.814;2023-12-20T02:49:27;16.17;;;0.50;;
59649;SDS011;46162;57.568;25.814;2023-12-20T02:51:56;15.38;;;0.68;;
59649;SDS011;46162;57.568;25.814;2023-12-20T02:54:25;16.65;;;1.13;;
59649;SDS011;46162;57.568;25.814;2023-12-20T02:56:55;16.90;;;0.60;;
59649;SDS011;46162;57.568;25.814;2023-12-20T02:59:23;18.67;;;0.77;;
59649;SDS011;46162;57.568;25.814;2023-12-20T03:01:52;15.95;;;0.75;;
59649;SDS011;46162;57.568;25.814;2023-12-20T03:04:21;11.52;;;0.35;;
59649;SDS011;46162;57.568;25.814;2023-12-20T03:06:49;24.90;;;1.27;;
59649;SDS011;46162;57.568;25.814;2023-12-20T03:09:18;16.05;;;0.30;;
59649;SDS011;46162;57.568;25.814;2023-12-20T03:11:47;16.85;;;0.50;;
59649;SDS011;46162;57.568;25.814;2023-12-20T03:14:17;13.73;;;0.63;;
59649;SDS011;46162;57.568;25.814;2023-12-20T03:16:46;17.90;;;0.40;;
59649;SDS011;46162;57.568;25.814;2023-12-20T03:19:16;16.10;;;0.40;;
59649;SDS011;46162;57.568;25.814;2023-12-20T03:21:46;18.58;;;0.40;;
59649;SDS011;46162;57.568;25.814;2023-12-20T03:24:14;16.02;;;0.75;;
59649;SDS011;46162;57.568;25.814;2023-12-20T03:26:43;13.95;;;0.30;;
59649;SDS011;46162;57.568;25.814;2023-12-20T03:29:11;19.05;;;0.80;;
59649;SDS011;46162;57.568;25.814;2023-12-20T03:31:41;19.35;;;2.25;;
59649;SDS011;46162;57.568;25.814;2023-12-20T03:34:10;13.00;;;0.60;;
59649;SDS011;46162;57.568;25.814;2023-12-20T03:36:39;13.13;;;0.30;;
59649;SDS011;46162;57.568;25.814;2023-12-20T03:39:08;19.02;;;2.28;;
59649;SDS011;46162;57.568;25.814;2023-12-20T03:41:37;19.70;;;1.05;;
59649;SDS011;46162;57.568;25.814;2023-12-20T03:44:05;16.20;;;0.68;;
59649;SDS011;46162;57.568;25.814;2023-12-20T03:46:34;14.93;;;0.93;;
59649;SDS011;46162;57.568;25.814;2023-12-20T03:49:04;14.68;;;0.25;;
59649;SDS011;46162;57.568;25.814;2023-12-20T03:51:33;12.80;;;0.53;;
59649;SDS011;46162;57.568;25.814;2023-12-20T03:54:01;14.07;;;0.50;;
59649;SDS011;46162;57.568;25.814;2023-12-20T03:56:30;19.15;;;0.57;;
59649;SDS011;46162;57.568;25.814;2023-12-20T03:58:59;12.40;;;0.40;;
59649;SDS011;46162;57.568;25.814;2023-12-20T04:01:27;13.13;;;0.30;;
59649;SDS011;46162;57.568;25.814;2023-12-20T04:03:56;15.02;;;0.50;;
59649;SDS011;46162;57.568;25.814;2023-12-20T04:06:27;20.60;;;0.93;;
59649;SDS011;46162;57.568;25.814;2023-12-20T04:08:56;10.35;;;0.50;;
59649;SDS011;46162;57.568;25.814;2023-12-20T04:11:25;15.40;;;0.60;;
59649;SDS011;46162;57.568;25.814;2023-12-20T04:13:54;7.95;;;0.40;;
59649;SDS011;46162;57.568;25.814;2023-12-20T04:16:23;11.02;;;0.20;;
59649;SDS011;46162;57.568;25.814;2023-12-20T04:18:52;11.50;;;0.40;;
59649;SDS011;46162;57.568;25.814;2023-12-20T04:21:21;15.55;;;0.50;;
59649;SDS011;46162;57.568;25.814;2023-12-20T04:23:51;7.50;;;0.22;;
59649;SDS011;46162;57.568;25.814;2023-12-20T04:26:20;15.53;;;0.40;;
59649;SDS011;46162;57.568;25.814;2023-12-20T04:28:49;15.93;;;0.20;;
59649;SDS011;46162;57.568;25.814;2023-12-20T04:31:21;21.65;;;0.80;;
59649;SDS011;46162;57.568;25.814;2023-12-20T04:33:50;12.95;;;0.70;;
59649;SDS011;46162;57.568;25.814;2023-12-20T04:36:19;14.57;;;0.50;;
59649;SDS011;46162;57.568;25.814;2023-12-20T04:38:48;13.38;;;0.57;;
59649;SDS011;46162;57.568;25.814;2023-12-20T04:41:18;14.65;;;0.45;;
59649;SDS011;46162;57.568;25.814;2023-12-20T04:43:47;18.67;;;0.30;;
59649;SDS011;46162;57.568;25.814;2023-12-20T04:46:16;12.48;;;0.43;;
59649;SDS011;46162;57.568;25.814;2023-12-20T04:48:45;15.25;;;0.40;;
59649;SDS011;46162;57.568;25.814;2023-12-20T04:51:14;9.68;;;0.20;;
59649;SDS011;46162;57.568;25.814;2023-12-20T04:53:43;15.25;;;0.90;;
59649;SDS011;46162;57.568;25.814;2023-12-20T04:56:12;16.13;;;0.40;;
59649;SDS011;46162;57.568;25.814;2023-12-20T04:58:43;14.50;;;0.50;;
59649;SDS011;46162;57.568;25.814;2023-12-20T05:01:12;12.40;;;0.25;;
59649;SDS011;46162;57.568;25.814;2023-12-20T05:03:41;16.33;;;0.47;;
59649;SDS011;46162;57.568;25.814;2023-12-20T05:06:10;18.67;;;0.60;;
59649;SDS011;46162;57.568;25.814;2023-12-20T05:08:39;12.10;;;0.98;;
59649;SDS011;46162;57.568;25.814;2023-12-20T05:11:08;18.15;;;0.85;;
59649;SDS011;46162;57.568;25.814;2023-12-20T05:13:36;12.80;;;0.63;;
59649;SDS011;46162;57.568;25.814;2023-12-20T05:16:17;9.65;;;0.63;;
59649;SDS011;46162;57.568;25.814;2023-12-20T05:21:16;11.80;;;0.47;;
59649;SDS011;46162;57.568;25.814;2023-12-20T05:23:45;16.48;;;0.50;;
59649;SDS011;46162;57.568;25.814;2023-12-20T05:26:15;24.73;;;0.82;;
59649;SDS011;46162;57.568;25.814;2023-12-20T05:28:44;14.38;;;0.63;;
59649;SDS011;46162;57.568;25.814;2023-12-20T05:31:13;17.58;;;1.38;;
59649;SDS011;46162;57.568;25.814;2023-12-20T05:33:43;18.52;;;1.85;;
59649;SDS011;46162;57.568;25.814;2023-12-20T05:36:12;14.77;;;0.60;;
59649;SDS011;46162;57.568;25.814;2023-12-20T05:38:42;12.43;;;0.22;;
59649;SDS011;46162;57.568;25.814;2023-12-20T05:41:10;14.85;;;0.60;;
59649;SDS011;46162;57.568;25.814;2023-12-20T05:43:40;15.40;;;0.30;;
59649;SDS011;46162;57.568;25.814;2023-12-20T05:46:09;11.95;;;0.40;;
59649;SDS011;46162;57.568;25.814;2023-12-20T05:48:39;15.75;;;0.45;;
59649;SDS011;46162;57.568;25.814;2023-12-20T05:51:10;22.30;;;0.88;;
59649;SDS011;46162;57.568;25.814;2023-12-20T05:53:40;16.50;;;0.80;;
59649;SDS011;46162;57.568;25.814;2023-12-20T05:56:08;10.00;;;0.40;;
59649;SDS011;46162;57.568;25.814;2023-12-20T05:58:38;12.80;;;0.52;;
59649;SDS011;46162;57.568;25.814;2023-12-20T06:01:07;13.75;;;0.63;;
59649;SDS011;46162;57.568;25.814;2023-12-20T06:03:36;15.63;;;0.57;;
59649;SDS011;46162;57.568;25.814;2023-12-20T06:06:05;14.85;;;0.40;;
59649;SDS011;46162;57.568;25.814;2023-12-20T06:08:44;16.33;;;0.73;;
59649;SDS011;46162;57.568;25.814;2023-12-20T06:11:13;9.75;;;0.50;;
59649;SDS011;46162;57.568;25.814;2023-12-20T06:13:42;17.15;;;0.75;;
59649;SDS011;46162;57.568;25.814;2023-12-20T06:16:10;15.60;;;0.75;;
59649;SDS011;46162;57.568;25.814;2023-12-20T06:18:39;15.20;;;0.60;;
59649;SDS011;46162;57.568;25.814;2023-12-20T06:21:08;18.20;;;0.63;;
59649;SDS011;46162;57.568;25.814;2023-12-20T06:23:40;12.48;;;0.38;;
59649;SDS011;46162;57.568;25.814;2023-12-20T06:26:10;13.70;;;0.75;;
59649;SDS011;46162;57.568;25.814;2023-12-20T06:28:39;12.93;;;0.68;;
59649;SDS011;46162;57.568;25.814;2023-12-20T06:31:08;12.93;;;0.35;;
59649;SDS011;46162;57.568;25.814;2023-12-20T06:33:37;16.08;;;1.00;;
59649;SDS011;46162;57.568;25.814;2023-12-20T06:36:08;11.35;;;0.65;;
59649;SDS011;46162;57.568;25.814;2023-12-20T06:38:40;21.88;;;0.80;;
59649;SDS011;46162;57.568;25.814;2023-12-20T06:41:14;14.05;;;0.85;;
59649;SDS011;46162;57.568;25.814;2023-12-20T06:43:44;14.10;;;0.52;;
59649;SDS011;46162;57.568;25.814;2023-12-20T06:46:16;15.32;;;1.40;;
59649;SDS011;46162;57.568;25.814;2023-12-20T06:48:45;16.25;;;0.60;;
59649;SDS011;46162;57.568;25.814;2023-12-20T06:51:15;12.15;;;0.60;;
59649;SDS011;46162;57.568;25.814;2023-12-20T06:53:46;13.43;;;0.52;;
59649;SDS011;46162;57.568;25.814;2023-12-20T06:56:16;15.80;;;0.70;;
59649;SDS011;46162;57.568;25.814;2023-12-20T06:58:48;9.63;;;0.65;;
59649;SDS011;46162;57.568;25.814;2023-12-20T07:01:17;18.38;;;0.82;;
59649;SDS011;46162;57.568;25.814;2023-12-20T07:03:47;16.45;;;0.95;;
59649;SDS011;46162;57.568;25.814;2023-12-20T07:06:16;17.38;;;1.48;;
59649;SDS011;46162;57.568;25.814;2023-12-20T07:08:45;15.30;;;0.65;;
59649;SDS011;46162;57.568;25.814;2023-12-20T07:11:14;15.30;;;1.00;;
59649;SDS011;46162;57.568;25.814;2023-12-20T07:13:44;18.75;;;1.17;;
59649;SDS011;46162;57.568;25.814;2023-12-20T07:16:13;13.80;;;0.52;;
59649;SDS011;46162;57.568;25.814;2023-12-20T07:18:42;13.25;;;1.00;;
59649;SDS011;46162;57.568;25.814;2023-12-20T07:21:11;11.70;;;1.08;;
59649;SDS011;46162;57.568;25.814;2023-12-20T07:23:40;12.55;;;0.70;;
59649;SDS011;46162;57.568;25.814;2023-12-20T07:26:09;21.08;;;1.10;;
59649;SDS011;46162;57.568;25.814;2023-12-20T07:31:10;14.10;;;1.77;;
59649;SDS011;46162;57.568;25.814;2023-12-20T07:33:39;9.93;;;0.77;;
59649;SDS011;46162;57.568;25.814;2023-12-20T07:36:08;19.15;;;0.52;;
59649;SDS011;46162;57.568;25.814;2023-12-20T07:38:36;12.77;;;1.42;;
59649;SDS011;46162;57.568;25.814;2023-12-20T07:41:05;16.48;;;1.05;;
59649;SDS011;46162;57.568;25.814;2023-12-20T07:43:34;19.17;;;1.20;;
59649;SDS011;46162;57.568;25.814;2023-12-20T07:46:06;14.07;;;0.93;;
59649;SDS011;46162;57.568;25.814;2023-12-20T07:48:36;26.00;;;2.00;;
59649;SDS011;46162;57.568;25.814;2023-12-20T07:51:09;15.50;;;1.08;;
59649;SDS011;46162;57.568;25.814;2023-12-20T07:53:38;19.33;;;1.73;;
59649;SDS011;46162;57.568;25.814;2023-12-20T07:56:13;15.25;;;0.80;;
59649;SDS011;46162;57.568;25.814;2023-12-20T07:58:43;11.82;;;0.77;;
59649;SDS011;46162;57.568;25.814;2023-12-20T08:01:19;18.60;;;1.25;;
59649;SDS011;46162;57.568;25.814;2023-12-20T08:03:50;14.85;;;0.80;;
59649;SDS011;46162;57.568;25.814;2023-12-20T08:06:19;13.50;;;1.05;;
59649;SDS011;46162;57.568;25.814;2023-12-20T08:08:48;15.13;;;0.82;;
59649;SDS011;46162;57.568;25.814;2023-12-20T08:11:28;10.55;;;1.13;;
59649;SDS011;46162;57.568;25.814;2023-12-20T08:13:57;16.42;;;1.15;;
59649;SDS011;46162;57.568;25.814;2023-12-20T08:16:26;18.52;;;1.25;;
59649;SDS011;46162;57.568;25.814;2023-12-20T08:18:56;19.85;;;1.77;;
59649;SDS011;46162;57.568;25.814;2023-12-20T08:21:25;16.17;;;1.70;;
59649;SDS011;46162;57.568;25.814;2023-12-20T08:23:54;18.58;;;1.50;;
59649;SDS011;46162;57.568;25.814;2023-12-20T08:26:23;20.33;;;1.52;;
59649;SDS011;46162;57.568;25.814;2023-12-20T08:28:52;20.80;;;1.73;;
59649;SDS011;46162;57.568;25.814;2023-12-20T08:31:24;16.30;;;1.90;;
59649;SDS011;46162;57.568;25.814;2023-12-20T08:33:52;14.75;;;1.30;;
59649;SDS011;46162;57.568;25.814;2023-12-20T08:36:23;20.95;;;1.75;;
59649;SDS011;46162;57.568;25.814;2023-12-20T08:38:52;22.10;;;2.25;;
59649;SDS011;46162;57.568;25.814;2023-12-20T08:41:22;20.70;;;1.88;;
59649;SDS011;46162;57.568;25.814;2023-12-20T08:43:50;17.00;;;1.80;;
59649;SDS011;46162;57.568;25.814;2023-12-20T08:46:19;13.45;;;1.30;;
59649;SDS011;46162;57.568;25.814;2023-12-20T08:48:48;14.85;;;1.65;;
59649;SDS011;46162;57.568;25.814;2023-12-20T08:51:17;12.02;;;1.02;;
59649;SDS011;46162;57.568;25.814;2023-12-20T08:53:47;15.75;;;1.90;;
59649;SDS011;46162;57.568;25.814;2023-12-20T08:56:16;13.65;;;1.60;;
59649;SDS011;46162;57.568;25.814;2023-12-20T08:58:45;15.18;;;1.48;;
59649;SDS011;46162;57.568;25.814;2023-12-20T09:01:14;24.05;;;1.65;;
59649;SDS011;46162;57.568;25.814;2023-12-20T09:03:43;18.83;;;1.77;;
59649;SDS011;46162;57.568;25.814;2023-12-20T09:06:12;14.90;;;1.88;;
59649;SDS011;46162;57.568;25.814;2023-12-20T09:08:40;15.52;;;1.75;;
59649;SDS011;46162;57.568;25.814;2023-12-20T09:11:11;22.08;;;2.00;;
59649;SDS011;46162;57.568;25.814;2023-12-20T09:13:40;18.10;;;1.70;;
59649;SDS011;46162;57.568;25.814;2023-12-20T09:16:08;17.88;;;1.23;;
59649;SDS011;46162;57.568;25.814;2023-12-20T09:18:37;17.70;;;1.73;;
59649;SDS011;46162;57.568;25.814;2023-12-20T09:21:06;16.88;;;1.33;;
59649;SDS011;46162;57.568;25.814;2023-12-20T09:23:35;17.90;;;1.48;;
59649;SDS011;46162;57.568;25.814;2023-12-20T09:26:04;18.42;;;1.58;;
59649;SDS011;46162;57.568;25.814;2023-12-20T09:28:34;18.73;;;1.48;;
59649;SDS011;46162;57.568;25.814;2023-12-20T09:31:06;15.57;;;1.55;;
59649;SDS011;46162;57.568;25.814;2023-12-20T09:33:35;10.60;;;0.65;;
59649;SDS011;46162;57.568;25.814;2023-12-20T09:36:04;17.83;;;1.13;;
59649;SDS011;46162;57.568;25.814;2023-12-20T09:38:34;16.38;;;0.88;;
59649;SDS011;46162;57.568;25.814;2023-12-20T09:41:02;12.90;;;1.02;;
59649;SDS011;46162;57.568;25.814;2023-12-20T09:43:32;17.27;;;1.90;;
59649;SDS011;46162;57.568;25.814;2023-12-20T09:46:06;22.70;;;1.60;;
59649;SDS011;46162;57.568;25.814;2023-12-20T09:48:35;17.50;;;1.40;;
59649;SDS011;46162;57.568;25.814;2023-12-20T09:51:05;19.60;;;1.90;;
59649;SDS011;46162;57.568;25.814;2023-12-20T09:53:33;16.02;;;0.98;;
59649;SDS011;46162;57.568;25.814;2023-12-20T09:56:05;19.80;;;1.80;;
59649;SDS011;46162;57.568;25.814;2023-12-20T09:58:37;19.25;;;1.30;;
59649;SDS011;46162;57.568;25.814;2023-12-20T10:01:06;14.95;;;1.23;;
59649;SDS011;46162;57.568;25.814;2023-12-20T10:03:36;18.70;;;1.65;;
59649;SDS011;46162;57.568;25.814;2023-12-20T10:06:09;21.13;;;1.83;;
59649;SDS011;46162;57.568;25.814;2023-12-20T10:08:38;14.70;;;1.30;;
59649;SDS011;46162;57.568;25.814;2023-12-20T10:11:07;14.07;;;1.80;;
59649;SDS011;46162;57.568;25.814;2023-12-20T10:13:40;17.67;;;1.50;;
59649;SDS011;46162;57.568;25.814;2023-12-20T10:16:09;14.73;;;0.95;;
59649;SDS011;46162;57.568;25.814;2023-12-20T10:18:38;19.38;;;2.10;;
59649;SDS011;46162;57.568;25.814;2023-12-20T10:21:08;13.27;;;1.17;;
59649;SDS011;46162;57.568;25.814;2023-12-20T10:23:37;21.73;;;1.70;;
59649;SDS011;46162;57.568;25.814;2023-12-20T10:26:07;15.75;;;1.50;;
59649;SDS011;46162;57.568;25.814;2023-12-20T10:28:36;19.98;;;1.70;;
59649;SDS011;46162;57.568;25.814;2023-12-20T10:31:07;17.73;;;2.67;;
59649;SDS011;46162;57.568;25.814;2023-12-20T10:33:36;25.73;;;3.15;;
59649;SDS011;46162;57.568;25.814;2023-12-20T10:36:08;19.38;;;2.97;;
59649;SDS011;46162;57.568;25.814;2023-12-20T10:38:37;17.02;;;2.15;;
59649;SDS011;46162;57.568;25.814;2023-12-20T10:41:09;20.98;;;2.08;;
59649;SDS011;46162;57.568;25.814;2023-12-20T10:43:39;19.92;;;1.73;;
59649;SDS011;46162;57.568;25.814;2023-12-20T10:46:10;13.05;;;2.13;;
59649;SDS011;46162;57.568;25.814;2023-12-20T10:48:39;16.80;;;2.20;;
59649;SDS011;46162;57.568;25.814;2023-12-20T10:51:08;17.08;;;2.28;;
59649;SDS011;46162;57.568;25.814;2023-12-20T10:53:38;20.17;;;1.98;;
59649;SDS011;46162;57.568;25.814;2023-12-20T10:56:08;23.25;;;2.53;;
59649;SDS011;46162;57.568;25.814;2023-12-20T10:58:43;15.88;;;1.92;;
59649;SDS011;46162;57.568;25.814;2023-12-20T11:01:15;14.80;;;2.20;;
59649;SDS011;46162;57.568;25.814;2023-12-20T11:03:48;18.90;;;2.20;;
59649;SDS011;46162;57.568;25.814;2023-12-20T11:06:26;15.50;;;1.95;;
59649;SDS011;46162;57.568;25.814;2023-12-20T11:09:03;17.08;;;1.83;;
59649;SDS011;46162;57.568;25.814;2023-12-20T11:11:44;12.88;;;1.42;;
59649;SDS011;46162;57.568;25.814;2023-12-20T11:14:37;16.42;;;1.50;;
59649;SDS011;46162;57.568;25.814;2023-12-20T11:17:12;23.77;;;2.33;;
59649;SDS011;46162;57.568;25.814;2023-12-20T11:22:51;25.13;;;1.70;;
59649;SDS011;46162;57.568;25.814;2023-12-20T11:25:21;18.55;;;1.25;;
59649;SDS011;46162;57.568;25.814;2023-12-20T11:30:42;14.50;;;1.88;;
59649;SDS011;46162;57.568;25.814;2023-12-20T11:33:16;15.60;;;2.60;;
59649;SDS011;46162;57.568;25.814;2023-12-20T11:35:45;14.90;;;2.65;;
59649;SDS011;46162;57.568;25.814;2023-12-20T11:38:14;18.33;;;1.70;;
59649;SDS011;46162;57.568;25.814;2023-12-20T11:40:43;16.52;;;1.77;;
59649;SDS011;46162;57.568;25.814;2023-12-20T11:43:12;21.88;;;2.00;;
59649;SDS011;46162;57.568;25.814;2023-12-20T11:46:02;17.30;;;1.95;;
59649;SDS011;46162;57.568;25.814;2023-12-20T11:48:33;21.83;;;2.22;;
59649;SDS011;46162;57.568;25.814;2023-12-20T11:51:08;18.67;;;2.95;;
59649;SDS011;46162;57.568;25.814;2023-12-20T11:53:38;22.23;;;2.65;;
59649;SDS011;46162;57.568;25.814;2023-12-20T11:56:07;13.45;;;1.65;;
59649;SDS011;46162;57.568;25.814;2023-12-20T11:58:36;14.27;;;1.95;;
59649;SDS011;46162;57.568;25.814;2023-12-20T12:01:05;12.27;;;1.75;;
59649;SDS011;46162;57.568;25.814;2023-12-20T12:03:37;18.40;;;2.10;;
59649;SDS011;46162;57.568;25.814;2023-12-20T12:06:06;15.23;;;2.47;;
59649;SDS011;46162;57.568;25.814;2023-12-20T12:08:35;25.30;;;2.25;;
59649;SDS011;46162;57.568;25.814;2023-12-20T12:11:04;14.70;;;1.42;;
59649;SDS011;46162;57.568;25.814;2023-12-20T12:13:33;12.32;;;1.60;;
59649;SDS011;46162;57.568;25.814;2023-12-20T12:16:02;22.30;;;2.78;;
59649;SDS011;46162;57.568;25.814;2023-12-20T12:18:32;18.35;;;2.22;;
59649;SDS011;46162;57.568;25.814;2023-12-20T12:21:04;17.27;;;1.67;;
59649;SDS011;46162;57.568;25.814;2023-12-20T12:23:41;14.77;;;2.10;;
59649;SDS011;46162;57.568;25.814;2023-12-20T12:26:10;20.63;;;1.83;;
59649;SDS011;46162;57.568;25.814;2023-12-20T12:28:39;15.65;;;2.15;;
59649;SDS011;46162;57.568;25.814;2023-12-20T12:31:12;21.88;;;1.98;;
59649;SDS011;46162;57.568;25.814;2023-12-20T12:33:43;17.02;;;1.58;;
59649;SDS011;46162;57.568;25.814;2023-12-20T12:36:14;21.42;;;2.33;;
59649;SDS011;46162;57.568;25.814;2023-12-20T12:38:44;16.02;;;1.80;;
59649;SDS011;46162;57.568;25.814;2023-12-20T12:41:13;15.55;;;2.00;;
59649;SDS011;46162;57.568;25.814;2023-12-20T12:43:43;20.17;;;2.03;;
59649;SDS011;46162;57.568;25.814;2023-12-20T12:46:11;14.68;;;2.05;;
59649;SDS011;46162;57.568;25.814;2023-12-20T12:48:40;20.77;;;2.90;;
59649;SDS011;46162;57.568;25.814;2023-12-20T12:51:14;13.27;;;1.45;;
59649;SDS011;46162;57.568;25.814;2023-12-20T12:53:43;16.27;;;1.88;;
59649;SDS011;46162;57.568;25.814;2023-12-20T12:56:12;15.15;;;1.08;;
59649;SDS011;46162;57.568;25.814;2023-12-20T12:58:41;17.80;;;2.03;;
59649;SDS011;46162;57.568;25.814;2023-12-20T13:01:09;24.25;;;1.73;;
59649;SDS011;46162;57.568;25.814;2023-12-20T13:03:38;16.27;;;0.95;;
59649;SDS011;46162;57.568;25.814;2023-12-20T13:06:07;15.77;;;1.27;;
59649;SDS011;46162;57.568;25.814;2023-12-20T13:08:37;20.38;;;2.00;;
59649;SDS011;46162;57.568;25.814;2023-12-20T13:11:06;14.90;;;1.25;;
59649;SDS011;46162;57.568;25.814;2023-12-20T13:13:34;14.63;;;1.10;;
59649;SDS011;46162;57.568;25.814;2023-12-20T13:16:03;21.73;;;1.42;;
59649;SDS011;46162;57.568;25.814;2023-12-20T13:18:32;13.57;;;1.00;;
59649;SDS011;46162;57.568;25.814;2023-12-20T13:21:01;17.35;;;2.78;;
59649;SDS011;46162;57.568;25.814;2023-12-20T13:23:31;15.55;;;0.93;;
59649;SDS011;46162;57.568;25.814;2023-12-20T13:26:04;15.02;;;1.73;;
59649;SDS011;46162;57.568;25.814;2023-12-20T13:28:32;14.80;;;1.27;;
59649;SDS011;46162;57.568;25.814;2023-12-20T13:31:01;13.60;;;1.05;;
59649;SDS011;46162;57.568;25.814;2023-12-20T13:33:30;15.45;;;1.23;;
59649;SDS011;46162;57.568;25.814;2023-12-20T13:35:59;15.32;;;1.40;;
59649;SDS011;46162;57.568;25.814;2023-12-20T13:38:31;15.15;;;1.30;;
59649;SDS011;46162;57.568;25.814;2023-12-20T13:41:00;10.32;;;1.00;;
59649;SDS011;46162;57.568;25.814;2023-12-20T13:43:30;12.85;;;1.13;;
59649;SDS011;46162;57.568;25.814;2023-12-20T13:45:59;20.13;;;1.98;;
59649;SDS011;46162;57.568;25.814;2023-12-20T13:48:28;15.20;;;1.02;;
59649;SDS011;46162;57.568;25.814;2023-12-20T13:50:57;11.75;;;1.00;;
59649;SDS011;46162;57.568;25.814;2023-12-20T13:53:26;13.88;;;1.33;;
59649;SDS011;46162;57.568;25.814;2023-12-20T13:55:55;12.23;;;0.90;;
59649;SDS011;46162;57.568;25.814;2023-12-20T13:58:24;10.52;;;0.47;;
59649;SDS011;46162;57.568;25.814;2023-12-20T14:00:56;12.55;;;0.73;;
59649;SDS011;46162;57.568;25.814;2023-12-20T14:03:25;11.43;;;0.95;;
59649;SDS011;46162;57.568;25.814;2023-12-20T14:05:53;12.50;;;0.60;;
59649;SDS011;46162;57.568;25.814;2023-12-20T14:08:23;13.95;;;0.43;;
59649;SDS011;46162;57.568;25.814;2023-12-20T14:10:52;12.63;;;0.85;;
59649;SDS011;46162;57.568;25.814;2023-12-20T14:13:20;16.02;;;0.65;;
59649;SDS011;46162;57.568;25.814;2023-12-20T14:15:49;8.23;;;0.45;;
59649;SDS011;46162;57.568;25.814;2023-12-20T14:18:19;9.65;;;0.50;;
59649;SDS011;46162;57.568;25.814;2023-12-20T14:20:48;14.65;;;0.57;;
59649;SDS011;46162;57.568;25.814;2023-12-20T14:23:17;13.57;;;1.15;;
59649;SDS011;46162;57.568;25.814;2023-12-20T14:25:47;12.80;;;0.60;;
59649;SDS011;46162;57.568;25.814;2023-12-20T14:28:18;10.45;;;0.47;;
59649;SDS011;46162;57.568;25.814;2023-12-20T14:30:47;10.50;;;0.45;;
59649;SDS011;46162;57.568;25.814;2023-12-20T14:33:18;9.75;;;0.70;;
59649;SDS011;46162;57.568;25.814;2023-12-20T14:35:48;18.45;;;0.40;;
59649;SDS011;46162;57.568;25.814;2023-12-20T14:38:18;10.50;;;0.70;;
59649;SDS011;46162;57.568;25.814;2023-12-20T14:40:46;12.52;;;1.58;;
59649;SDS011;46162;57.568;25.814;2023-12-20T14:43:15;12.43;;;0.80;;
59649;SDS011;46162;57.568;25.814;2023-12-20T14:45:44;12.13;;;0.70;;